• Join FlightAware (Why Join?)
  • Login
  • US Flag 
04:57AM EST


 

Airport Tracker/Info


-or-


 

Live Flight TrackerFlight Track Log ✈ EJA958 ✈ 02-Aug-2013 ✈ KPHL - KTEB

Flight Track Log - Related Links

Times and Time Zones

All times are in EDT time to prevent confusion due to time zone crossing. See the EJA958 flight status page for this flight to view local times or setup timezone preferences in your user account.

Time Position Orientation Groundspeed Altitude Reporting Facility
EDT Latitude Longitude Course Direction KTS MPH feet Rate Location/Type
07:22AM 39.9000 -75.2333 323° Northwest 174 200 1,100  Level Philadelphia TRACON
07:23AM 39.9333 -75.2667 323° Northwest 211 243 3,000 1,860 Climbing Philadelphia TRACON
07:24AM 39.9833 -75.2500 14° North 283 326 3,900 480 Climbing Philadelphia TRACON
07:25AM 40.0500 -75.2000 30° Northeast 269 310 4,000  Climbing Philadelphia TRACON
07:26AM 40.1333 -75.1333 31° Northeast 264 304 4,000  Level Philadelphia TRACON
07:27AM 40.2167 -75.0500 37° Northeast 256 295 4,000  Level New York TRACON
07:28AM 40.2833 -75.0000 30° Northeast 254 292 4,100  Climbing New York TRACON
07:29AM 40.3333 -74.9667 27° Northeast 265 305 4,100  Level New York TRACON
07:30AM 40.4000 -74.9000 37° Northeast 275 316 4,100  Level New York TRACON
07:31AM 40.4667 -74.8500 30° Northeast 275 316 4,100  Level New York TRACON
07:32AM 40.5167 -74.8000 37° Northeast 269 310 4,100  Level New York TRACON
07:33AM 40.5833 -74.7500 30° Northeast 261 300 4,100  Level New York TRACON
07:34AM 40.6500 -74.7000 30° Northeast 256 295 4,100  Level New York TRACON
07:35AM 40.7000 -74.6500 37° Northeast 256 295 4,100  Level New York TRACON
07:36AM 40.7667 -74.6000 30° Northeast 270 311 4,100 -300 Level New York TRACON
07:37AM 40.8333 -74.5500 30° Northeast 271 312 3,500 -540 Descending New York TRACON
07:38AM 40.9000 -74.5000 30° Northeast 254 292 3,100 -240 Descending New York TRACON
07:39AM 40.9500 -74.4500 37° Northeast 259 298 3,100  Level New York TRACON
07:40AM 40.9667 -74.3500 78° East 263 303 3,100  Level New York TRACON
07:41AM 40.9833 -74.2500 78° East 263 303 3,100 -540 Level New York TRACON
07:42AM 41.0000 -74.1833 72° East 220 253 2,100 -540 Descending New York TRACON
07:43AM 41.0000 -74.1000 90° East 221 254 2,100 -60 Level New York TRACON
07:44AM 40.9667 -74.0500 131° Southeast 227 261 2,000 -540 Descending New York TRACON
07:45AM 40.9167 -74.0500 180° South 167 192 1,100 -840 Descending New York TRACON
07:46AM 40.8667 -74.0667 194° South 142 163 400 -720 Descending New York TRACON
07:48AM 40.8500 -74.0500 108° East  Level FlightAware Approximate
07:55AM 40.8501 -74.0608 108° East  Level Estimated
07:56AM 40.8501 -74.0608 108° East  Level Estimated